AFL2008 UUEE-EPKK
Flight info
| Callsign | AFL2008 |
|---|---|
| Flight time | N/A |
| Altitude | 36000 |
| Route | LIDRI3H LIDRI T781 REPNU N858 VEPIS Y219 LAPKI N869 OSMUS M984 LETKI M984 KOTEK N133 NEGUV M66 KUKAM |
| Aircraft | A320/M-SDE3FGHIRWY/LB1 |
Departure
| Time | 2026-05-01 15:28 |
|---|---|
| Airport | Sheremetyevo International Airport (UUEE) |
Arrival
| Time | N/A |
|---|---|
| Airport | Kraków John Paul II International Airport (EPKK) |
| Time | Latitude | Longitude | Altitude | Speed | Heading |
|---|---|---|---|---|---|
| 2026-05-01 15:19 | 55.97926 | 37.41201 | 639 ft | 0 kts | 255° |
| 2026-05-01 15:20 | 55.97927 | 37.41207 | 639 ft | 2 kts | 255° |
| 2026-05-01 15:20 | 55.97932 | 37.41239 | 643 ft | 3 kts | 253° |
| 2026-05-01 15:20 | 55.97938 | 37.41273 | 644 ft | 3 kts | 249° |
| 2026-05-01 15:21 | 55.97946 | 37.41306 | 641 ft | 3 kts | 240° |
| 2026-05-01 15:21 | 55.97957 | 37.41335 | 640 ft | 3 kts | 214° |
| 2026-05-01 15:21 | 55.97969 | 37.41345 | 641 ft | 1 kts | 167° |
| 2026-05-01 15:21 | 55.97971 | 37.41344 | 641 ft | 0 kts | 165° |
| 2026-05-01 15:23 | 55.97943 | 37.41358 | 640 ft | 10 kts | 165° |
| 2026-05-01 15:23 | 55.97875 | 37.41390 | 642 ft | 10 kts | 165° |
| 2026-05-01 15:24 | 55.97799 | 37.41426 | 639 ft | 12 kts | 165° |
| 2026-05-01 15:24 | 55.97719 | 37.41464 | 639 ft | 10 kts | 165° |
| 2026-05-01 15:24 | 55.97678 | 37.41514 | 639 ft | 7 kts | 106° |
| 2026-05-01 15:24 | 55.97652 | 37.41588 | 639 ft | 7 kts | 150° |
| 2026-05-01 15:25 | 55.97612 | 37.41647 | 639 ft | 10 kts | 114° |
| 2026-05-01 15:25 | 55.97622 | 37.41773 | 646 ft | 12 kts | 75° |
| 2026-05-01 15:25 | 55.97645 | 37.41924 | 639 ft | 14 kts | 75° |
| 2026-05-01 15:25 | 55.97672 | 37.42103 | 639 ft | 16 kts | 75° |
| 2026-05-01 15:26 | 55.97703 | 37.42310 | 639 ft | 18 kts | 75° |
| 2026-05-01 15:26 | 55.97736 | 37.42538 | 643 ft | 17 kts | 75° |
| 2026-05-01 15:26 | 55.97757 | 37.42675 | 641 ft | 9 kts | 75° |
| 2026-05-01 15:26 | 55.97744 | 37.42783 | 640 ft | 10 kts | 144° |
| 2026-05-01 15:27 | 55.97668 | 37.42826 | 638 ft | 13 kts | 165° |
| 2026-05-01 15:27 | 55.97593 | 37.42762 | 641 ft | 13 kts | 252° |
| 2026-05-01 15:27 | 55.97564 | 37.42561 | 640 ft | 33 kts | 255° |
| 2026-05-01 15:28 | 55.97201 | 37.40140 | 638 ft | 157 kts | 255° |
| 2026-05-01 15:28 | 55.97001 | 37.38853 | 993 ft | 153 kts | 254° |
| 2026-05-01 15:28 | 55.96720 | 37.37087 | 1561 ft | 153 kts | 255° |
| 2026-05-01 15:29 | 55.96115 | 37.33252 | 2555 ft | 179 kts | 256° |
| 2026-05-01 15:29 | 55.95740 | 37.30996 | 3336 ft | 195 kts | 253° |
| 2026-05-01 15:29 | 55.94923 | 37.26045 | 4336 ft | 231 kts | 256° |
| 2026-05-01 15:30 | 55.94020 | 37.20058 | 5569 ft | 259 kts | 256° |
| 2026-05-01 15:31 | 55.92006 | 37.07205 | 8835 ft | 279 kts | 257° |
| 2026-05-01 15:31 | 55.91044 | 37.00433 | 10336 ft | 287 kts | 267° |
| 2026-05-01 15:32 | 55.91061 | 36.93203 | 11710 ft | 296 kts | 275° |
| 2026-05-01 15:32 | 55.91136 | 36.85767 | 13090 ft | 306 kts | 275° |
| 2026-05-01 15:33 | 55.90986 | 36.74087 | 14921 ft | 330 kts | 262° |
| 2026-05-01 15:34 | 55.89178 | 36.61042 | 15422 ft | 387 kts | 259° |